createdAt,value
2023-05-16T00:03:08.016Z,100082.19
2023-05-16T00:08:10.474Z,100067.47
2023-05-16T00:13:14.014Z,100073.94
2023-05-16T00:18:17.124Z,100052.50
2023-05-16T00:23:19.407Z,100083.00
2023-05-16T00:28:21.864Z,100071.22
2023-05-16T00:33:24.111Z,100066.81
2023-05-16T00:38:26.676Z,100052.00
2023-05-16T00:43:28.854Z,100050.84
2023-05-16T00:48:31.212Z,100059.81
2023-05-16T00:53:33.473Z,100040.88
2023-05-16T00:58:37.260Z,100029.28
2023-05-16T01:03:39.908Z,100084.88
2023-05-16T01:08:42.322Z,100033.75
2023-05-16T01:14:05.961Z,100049.06
2023-05-16T01:19:29.519Z,100037.34
2023-05-16T01:24:44.223Z,100068.00
2023-05-16T01:29:46.550Z,100057.97
2023-05-16T01:34:49.315Z,100009.06
2023-05-16T01:40:10.254Z,100013.41
2023-05-16T01:45:27.407Z,100063.38
2023-05-16T01:50:35.037Z,100034.66
2023-05-16T01:55:47.114Z,100016.38
2023-05-16T02:00:49.458Z,100000.91
2023-05-16T02:05:51.718Z,100014.78
2023-05-16T02:10:54.042Z,100007.94
2023-05-16T02:15:56.311Z,100005.97
2023-05-16T02:20:58.485Z,100021.34
2023-05-16T02:26:00.675Z,100028.69
2023-05-16T02:31:02.968Z,100015.28
2023-05-16T02:36:05.468Z,99991.16
2023-05-16T02:41:07.679Z,99959.13
2023-05-16T02:46:33.312Z,99934.63
2023-05-16T02:51:35.761Z,99944.50
2023-05-16T02:56:38.114Z,100003.13
2023-05-16T03:01:40.531Z,100002.28
2023-05-16T03:06:42.887Z,100014.78
2023-05-16T03:11:45.133Z,100013.13
2023-05-16T03:16:47.711Z,99996.25
2023-05-16T03:21:49.909Z,100002.28
2023-05-16T03:26:52.535Z,99990.44
2023-05-16T03:31:55.381Z,99999.91
2023-05-16T03:36:57.898Z,100010.69
2023-05-16T03:42:00.237Z,100010.13
2023-05-16T03:47:02.504Z,100005.09
2023-05-16T03:52:07.622Z,99996.81
2023-05-16T03:57:09.950Z,99970.06
2023-05-16T04:02:12.262Z,99985.00
2023-05-16T04:07:14.617Z,99970.91
2023-05-16T04:12:17.007Z,99981.53
2023-05-16T04:17:19.262Z,99977.59
2023-05-16T04:22:24.425Z,99989.13
2023-05-16T04:27:27.304Z,100006.41
2023-05-16T04:32:29.673Z,100028.66
2023-05-16T04:37:32.204Z,100030.72
2023-05-16T04:42:34.489Z,100004.69
2023-05-16T04:47:37.182Z,99997.28
2023-05-16T04:52:39.418Z,100007.03
2023-05-16T04:57:41.626Z,99969.38
2023-05-16T05:02:44.434Z,99993.00
2023-05-16T05:07:46.929Z,99994.69
2023-05-16T05:12:49.182Z,99982.91
2023-05-16T05:17:51.561Z,99961.56
2023-05-16T05:22:53.884Z,99985.81
2023-05-16T05:27:56.199Z,100027.50
2023-05-16T05:32:58.634Z,100028.41
2023-05-16T05:38:00.919Z,100060.72
2023-05-16T05:43:03.188Z,100050.25
2023-05-16T05:48:06.057Z,100040.19
2023-05-16T05:53:08.413Z,100039.00
2023-05-16T05:58:11.221Z,100041.88
2023-05-16T06:03:14.885Z,100050.41
2023-05-16T06:08:17.118Z,100027.88
2023-05-16T06:13:19.294Z,100034.66
2023-05-16T06:18:22.239Z,100046.22
2023-05-16T06:23:24.569Z,100044.53
2023-05-16T06:28:26.816Z,100054.94
2023-05-16T06:33:29.076Z,100038.56
2023-05-16T06:38:31.612Z,100037.81
2023-05-16T06:43:33.855Z,100037.88
2023-05-16T06:48:36.188Z,100014.34
2023-05-16T06:53:38.489Z,100017.56
2023-05-16T06:58:40.869Z,100037.78
2023-05-16T07:03:43.227Z,100012.22
2023-05-16T07:08:45.763Z,100028.81
2023-05-16T07:13:48.230Z,100006.25
2023-05-16T07:18:50.629Z,100039.72
2023-05-16T07:23:53.158Z,100048.78
2023-05-16T07:28:55.876Z,100030.38
2023-05-16T07:33:58.685Z,100051.31
2023-05-16T07:39:01.222Z,100021.94
2023-05-16T07:44:03.591Z,100050.41
2023-05-16T07:49:05.904Z,100035.88
2023-05-16T07:54:08.165Z,100024.06
2023-05-16T07:59:10.760Z,100033.00
2023-05-16T08:04:12.981Z,100039.94
2023-05-16T08:09:15.237Z,100034.50
2023-05-16T08:14:17.712Z,100016.38
2023-05-16T08:19:20.101Z,100010.81
2023-05-16T08:24:22.459Z,100022.22
2023-05-16T08:29:24.946Z,100001.81
2023-05-16T08:34:27.218Z,100010.34
2023-05-16T08:39:31.122Z,99978.97
2023-05-16T08:44:34.889Z,99965.63
2023-05-16T08:49:40.030Z,99984.03
2023-05-16T08:54:42.770Z,100007.03
2023-05-16T08:59:46.053Z,100035.22
2023-05-16T09:04:49.163Z,100096.63
2023-05-16T09:09:55.152Z,100085.69
2023-05-16T09:14:58.669Z,100028.13
2023-05-16T09:20:01.987Z,100055.66
2023-05-16T09:25:06.927Z,100059.50
2023-05-16T09:30:11.608Z,100055.66
2023-05-16T09:35:27.283Z,100063.41
2023-05-16T09:40:45.009Z,100092.78
2023-05-16T09:45:48.650Z,100100.78
2023-05-16T09:50:55.587Z,100108.31
2023-05-16T09:56:05.447Z,100115.41
2023-05-16T10:01:09.297Z,100106.84
2023-05-16T10:06:13.060Z,100054.03
2023-05-16T10:11:16.873Z,99967.00
2023-05-16T10:16:22.039Z,99953.16
2023-05-16T10:21:28.900Z,99999.00
2023-05-16T10:26:33.106Z,100042.03
2023-05-16T10:31:36.553Z,100057.00
2023-05-16T10:36:40.204Z,100029.28
2023-05-16T10:41:43.376Z,100078.97
2023-05-16T10:46:48.610Z,100033.97
2023-05-16T10:52:10.747Z,100037.44
2023-05-16T10:57:23.250Z,100024.53
2023-05-16T11:02:33.337Z,100030.22
2023-05-16T11:07:39.530Z,99983.84
2023-05-16T11:12:52.819Z,99949.34
2023-05-16T11:18:09.172Z,99901.72
2023-05-16T11:23:17.413Z,99930.03
2023-05-16T11:28:20.428Z,99937.31
2023-05-16T11:33:23.443Z,99901.09
2023-05-16T11:38:25.984Z,99789.78
2023-05-16T11:43:28.223Z,99839.34
2023-05-16T11:48:36.271Z,99894.97
2023-05-16T11:53:40.092Z,99871.63
2023-05-16T11:58:43.095Z,99901.94
2023-05-16T12:03:45.732Z,99888.03
2023-05-16T12:08:52.190Z,99924.09
2023-05-16T12:13:54.618Z,99849.25
2023-05-16T12:18:56.940Z,99858.19
2023-05-16T12:23:59.648Z,99860.53
2023-05-16T12:29:04.462Z,99892.72
2023-05-16T12:34:16.394Z,99901.69
2023-05-16T12:39:18.658Z,99902.81
2023-05-16T12:44:20.965Z,99913.00
2023-05-16T12:49:23.480Z,99910.88
2023-05-16T12:54:25.950Z,99906.13
2023-05-16T12:59:29.674Z,99910.03
2023-05-16T13:04:32.170Z,99920.97
2023-05-16T13:09:34.554Z,99922.69
2023-05-16T13:14:36.925Z,99948.41
2023-05-16T13:19:39.440Z,99935.56
2023-05-16T13:24:41.916Z,99926.31
2023-05-16T13:29:44.724Z,99921.50
2023-05-16T13:34:47.084Z,99892.38
2023-05-16T13:39:49.369Z,99888.03
2023-05-16T13:44:52.016Z,99895.41
2023-05-16T13:49:54.344Z,99868.09
2023-05-16T13:54:56.655Z,99886.69
2023-05-16T14:00:24.662Z,99875.50
2023-05-16T14:05:21.492Z,99868.69
2023-05-16T14:10:23.830Z,99841.69
2023-05-16T14:15:26.274Z,99862.44
2023-05-16T14:20:28.966Z,99857.50
2023-05-16T14:25:34.368Z,99861.31
2023-05-16T14:30:37.791Z,99846.88
2023-05-16T14:35:41.531Z,99834.88
2023-05-16T14:40:43.866Z,99842.53
2023-05-16T14:45:46.202Z,99828.13
2023-05-16T14:50:48.543Z,99814.81
2023-05-16T14:55:50.780Z,99816.69
2023-05-16T15:00:53.023Z,99832.22
2023-05-16T15:05:55.580Z,99830.28
2023-05-16T15:10:57.843Z,99827.31
2023-05-16T15:16:00.380Z,99848.31
2023-05-16T15:21:02.656Z,99827.59
2023-05-16T15:26:05.401Z,99821.56
2023-05-16T15:31:07.680Z,99829.75
2023-05-16T15:36:09.965Z,99824.59
2023-05-16T15:46:17.721Z,99819.94
2023-05-16T15:51:20.264Z,99803.59
2023-05-16T15:56:22.644Z,99837.13
2023-05-16T16:01:24.978Z,99833.06
2023-05-16T16:06:27.459Z,99823.50
2023-05-16T16:11:30.023Z,99803.59
2023-05-16T16:16:32.795Z,99817.75
2023-05-16T16:21:35.333Z,99827.03
2023-05-16T16:26:38.375Z,99821.03
2023-05-16T16:31:41.456Z,99810.09
2023-05-16T16:36:43.882Z,99828.06
2023-05-16T16:41:46.540Z,99837.59
2023-05-16T16:46:49.102Z,99831.59
2023-05-16T16:51:51.465Z,99816.56
2023-05-16T16:56:53.776Z,99859.66
2023-05-16T17:01:56.163Z,99865.88
2023-05-16T17:06:58.373Z,99857.66
2023-05-16T17:12:08.103Z,99869.91
2023-05-16T17:17:10.553Z,99872.06
2023-05-16T17:22:13.964Z,99874.78
2023-05-16T17:27:16.315Z,99849.13
2023-05-16T17:32:20.551Z,99859.19
2023-05-16T17:37:23.034Z,99869.78
2023-05-16T17:42:25.355Z,99862.38
2023-05-16T17:47:27.681Z,99876.78
2023-05-16T17:52:29.984Z,99878.34
2023-05-16T17:57:32.250Z,99905.56
2023-05-16T18:02:36.695Z,99882.63
2023-05-16T18:07:40.555Z,99923.00
2023-05-16T18:12:43.394Z,99903.66
2023-05-16T18:17:45.867Z,99897.84
2023-05-16T18:22:48.348Z,99903.81
2023-05-16T18:27:50.754Z,99890.19
2023-05-16T18:32:53.123Z,99892.91
2023-05-16T18:37:55.416Z,99911.44
2023-05-16T18:42:58.799Z,99908.91
2023-05-16T18:48:01.344Z,99910.94
2023-05-16T18:53:03.799Z,99902.78
2023-05-16T18:58:06.039Z,99900.63
2023-05-16T19:03:10.121Z,99883.97
2023-05-16T19:08:12.435Z,99906.53
2023-05-16T19:13:14.738Z,99896.41
2023-05-16T19:18:18.327Z,99914.38
2023-05-16T19:23:21.076Z,99919.22
2023-05-16T19:28:24.994Z,99910.38
2023-05-16T19:33:27.273Z,99926.97
2023-05-16T19:38:29.684Z,99921.53
2023-05-16T19:43:31.984Z,99926.97
2023-05-16T19:48:34.421Z,99909.22
2023-05-16T19:53:36.816Z,99904.91
2023-05-16T19:58:39.277Z,99897.75
2023-05-16T20:03:42.033Z,99898.72
2023-05-16T20:08:44.462Z,99930.06
2023-05-16T20:13:46.901Z,99922.31
2023-05-16T20:18:49.218Z,99928.91
2023-05-16T20:23:51.731Z,99924.53
2023-05-16T20:28:54.057Z,99925.94
2023-05-16T20:33:56.443Z,99945.91
2023-05-16T20:38:58.786Z,99924.63
2023-05-16T20:44:01.141Z,99921.81
2023-05-16T20:49:03.624Z,99920.00
2023-05-16T20:54:05.968Z,99906.53
2023-05-16T20:59:08.267Z,99899.34
2023-05-16T21:04:10.741Z,99925.34
2023-05-16T21:09:13.038Z,99923.66
2023-05-16T21:14:15.392Z,99910.06
2023-05-16T21:19:17.789Z,99912.59
2023-05-16T21:24:20.114Z,99933.25
2023-05-16T21:29:22.468Z,99934.81
2023-05-16T21:34:24.812Z,99937.72
2023-05-16T21:39:27.315Z,99959.94
2023-05-16T21:44:31.997Z,99964.56
2023-05-16T21:49:35.917Z,99944.84
2023-05-16T21:54:38.181Z,99935.06
2023-05-16T21:59:40.541Z,99943.19
2023-05-16T22:04:42.848Z,99919.22
2023-05-16T22:09:45.485Z,99935.09
2023-05-16T22:14:47.875Z,99940.00
2023-05-16T22:19:50.231Z,99923.47
2023-05-16T22:24:52.581Z,99938.28
2023-05-16T22:29:54.852Z,99908.03
2023-05-16T22:34:57.647Z,99939.56
2023-05-16T22:39:59.997Z,99924.28
2023-05-16T22:45:02.235Z,99925.19
2023-05-16T22:50:04.837Z,99917.88
2023-05-16T22:55:08.431Z,99937.19
2023-05-16T23:00:11.090Z,99931.97
2023-05-16T23:05:13.344Z,99928.03
2023-05-16T23:10:15.566Z,99931.84
2023-05-16T23:15:17.802Z,99917.72
2023-05-16T23:20:20.241Z,99931.97
2023-05-16T23:25:22.695Z,99906.66
2023-05-16T23:30:25.309Z,99913.47
2023-05-16T23:35:27.647Z,99911.69
2023-05-16T23:40:30.100Z,99872.13
2023-05-16T23:45:32.344Z,99915.03
2023-05-16T23:50:34.637Z,99899.13
2023-05-16T23:55:36.895Z,99907.91
